Aérodrome :
LOGIN :

S'inscrire | Disclaimer

   EN    FR    IT 

 










Légende :    VFR   VFR Marginal   IFR   IFR Intensif   IFR Très Intensif
Visi : 
Plafond : 
>= 8 km
>= 3000ft
5 à 8 km
1000 à 3000 ft
1500m à 5 km
500 à 1000 ft
800 à 1500m
200 à 500 ft
< 800m
< 200 ft
Symboles :   Orages  Brouillard  Fortes neiges  Fortes précipitations  Vent > 20 kt
SIGMETs :   Divers  Orages  Givrage  Turbulence  Onde Orograph.  Cendres Volcan.







- Altitude de l'aérodrome : 405 ft
- Code IATA : ODH


EGVO - RAF Odiham

DERNIER METAR :
  • 270550Z 07005KT 9999 SCT032 OVC048 06/05 Q1009 BLU

METARs EXPIRÉS :
  • 270450Z 15007KT 6000 -RA OVC038 07/06 Q1010 WHT
  • 270350Z 16006KT 9999 -RA OVC047 07/07 Q1010 BLU

TAF TAF EGVO
Valide du 27 à 06h jusqu'au 27 à 18h UTC


270444Z 2706/2718 10008KT 9999 BKN025
PROB30
TEMPO 2706/2712 4000 -RA BKN010
TEMPO 2712/2718 4000 RA SHRA BKN010
PROB30
TEMPO 2717/2718 3000 RADZ BKN005
Pas de NOTAMs connus pour ce terrain.



MET'MAP, la Météo Aéronautique d'un coup d'oeil ! - Copyright ORBIFLY Décembre 2007 - Disclaimer

ORBIFLY MET'MAP TEAM :

Programmation & Développement : Alexandra Zaïnal
Conception & Développement : Baudouin d'Aumeries
Co-Programmation & Développement : Marc-Olivier Méhu
Soutien technique & logistique : Manuel Goepfert

Contact : metmap@orbifly.com




SOURCES & CREDITS :

   NOAA